Terminal Aerodrome Forecast
Issued by NWS

Home | Current Version | Previous Version | Text Only | Print | Product List | Glossary On
Versions: 1 2 3 4 5 6 7 8 9 10 11 12
000
FTUS43 KMPX 250524
TAFRNH
TAF
KRNH 250524Z 2506/2606 VRB02KT P6SM SKC
     FM250800 VRB02KT 3SM BR SKC
     FM251300 VRB04KT P6SM SCT250=

USA.gov is the U.S. government's official web portal to all federal, state and local government web resources and services.